Time;durP1;ratioP1;P1;durP2;ratioP2;P2;SDS_P1;SDS_P2;PMS_P1;PMS_P2;Temp;Humidity;BMP_temperature;BMP_pressure;BME280_temperature;BME280_humidity;BME280_pressure;Samples;Min_cycle;Max_cycle;Signal;HPM_P1;HPM_P2
2021/05/09 00:01:28;;;;;;;5.55;3.05;;;14.60;96.40;;;;;;5099044;28;20024;-39
2021/05/09 00:03:55;;;;;;;4.50;3.20;;;14.60;96.40;;;;;;5103475;28;20477;-40
2021/05/09 00:06:21;;;;;;;5.07;3.15;;;14.50;96.40;;;;;;5097185;28;20196;-39
2021/05/09 00:08:47;;;;;;;6.72;3.10;;;14.50;96.50;;;;;;5104399;28;20028;-38
2021/05/09 00:11:13;;;;;;;5.55;3.10;;;14.50;96.40;;;;;;5094761;28;20035;-40
2021/05/09 00:13:39;;;;;;;6.93;3.05;;;14.40;96.50;;;;;;5104573;28;20042;-39
2021/05/09 00:16:05;;;;;;;5.82;3.30;;;14.40;96.50;;;;;;5093956;28;20027;-40
2021/05/09 00:18:30;;;;;;;3.47;2.63;;;14.40;96.50;;;;;;5105921;28;20020;-39
2021/05/09 00:20:57;;;;;;;3.85;2.72;;;14.40;96.50;;;;;;5093540;28;20030;-40
2021/05/09 00:23:22;;;;;;;3.00;2.58;;;14.30;96.50;;;;;;5106232;28;20109;-39
2021/05/09 00:25:48;;;;;;;4.63;3.00;;;14.30;96.60;;;;;;5093145;28;20135;-38
2021/05/09 00:28:14;;;;;;;3.63;3.08;;;14.30;96.60;;;;;;5106073;28;20020;-39
2021/05/09 00:30:39;;;;;;;5.63;3.30;;;14.30;96.60;;;;;;5095207;28;20439;-39
2021/05/09 00:33:05;;;;;;;5.28;3.70;;;14.30;96.60;;;;;;5102998;28;20039;-39
2021/05/09 00:35:31;;;;;;;4.07;2.47;;;14.30;96.60;;;;;;5098128;28;20016;-39
2021/05/09 00:37:56;;;;;;;3.25;2.80;;;14.20;96.60;;;;;;5100571;28;20063;-39
2021/05/09 00:40:22;;;;;;;3.65;2.85;;;14.20;96.70;;;;;;5100717;28;20059;-39
2021/05/09 00:42:47;;;;;;;3.40;2.70;;;14.20;96.70;;;;;;5097734;28;20036;-39
2021/05/09 00:45:13;;;;;;;5.35;3.33;;;14.10;96.70;;;;;;5102893;28;20486;-39
2021/05/09 00:47:38;;;;;;;4.13;2.70;;;14.10;96.70;;;;;;5095125;28;20042;-39
2021/05/09 00:50:08;;;;;;;3.35;2.60;;;14.10;96.70;;;;;;5103797;28;20314;-39
2021/05/09 00:52:37;;;;;;;4.60;2.92;;;14.00;96.70;;;;;;5094322;28;20102;-38
2021/05/09 00:55:05;;;;;;;5.00;3.10;;;14.00;96.80;;;;;;5103355;28;20024;-39
2021/05/09 00:57:33;;;;;;;3.38;3.08;;;13.90;96.80;;;;;;5094033;28;20034;-39
2021/05/09 01:00:01;;;;;;;3.72;2.88;;;13.90;96.80;;;;;;5105163;28;20020;-40
2021/05/09 01:02:28;;;;;;;4.75;2.90;;;13.90;96.80;;;;;;5092946;28;20029;-39
2021/05/09 01:04:55;;;;;;;4.20;3.10;;;13.90;97.10;;;;;;5105432;28;20024;-39
2021/05/09 01:07:21;;;;;;;4.07;3.08;;;13.80;97.00;;;;;;5092363;28;20074;-39
2021/05/09 01:09:47;;;;;;;5.07;3.25;;;13.80;97.00;;;;;;5105374;28;20483;-40
2021/05/09 01:12:14;;;;;;;5.05;3.35;;;13.70;97.00;;;;;;5093193;28;20035;-40
2021/05/09 01:14:40;;;;;;;4.88;3.20;;;13.70;97.00;;;;;;5104845;28;20142;-38
2021/05/09 01:17:06;;;;;;;3.78;2.78;;;13.70;97.10;;;;;;5095887;28;20024;-39
2021/05/09 01:19:33;;;;;;;3.35;3.05;;;13.70;97.00;;;;;;5101211;28;20366;-37
2021/05/09 01:21:58;;;;;;;3.85;2.60;;;13.70;97.10;;;;;;5098511;28;20024;-39
2021/05/09 01:24:24;;;;;;;4.00;2.83;;;13.60;97.00;;;;;;5099440;28;20022;-36
2021/05/09 01:26:52;;;;;;;2.92;2.72;;;13.70;97.10;;;;;;5104163;28;20031;-38
2021/05/09 01:29:18;;;;;;;3.28;2.72;;;13.60;97.10;;;;;;5101647;28;20118;-38
2021/05/09 01:31:45;;;;;;;3.42;2.95;;;13.60;97.10;;;;;;5107065;28;20099;-38
2021/05/09 01:34:10;;;;;;;4.05;2.83;;;13.60;97.10;;;;;;5098442;28;20063;-38
2021/05/09 01:36:36;;;;;;;2.97;2.60;;;13.60;97.10;;;;;;5093885;28;20084;-38
2021/05/09 01:39:02;;;;;;;4.80;2.83;;;13.60;97.10;;;;;;5099666;28;20332;-39
2021/05/09 01:41:28;;;;;;;3.50;2.63;;;13.60;97.10;;;;;;5089431;28;20127;-37
2021/05/09 01:43:56;;;;;;;5.38;3.53;;;13.60;97.20;;;;;;5100498;28;20039;-40
2021/05/09 01:46:21;;;;;;;5.60;3.08;;;13.50;97.40;;;;;;5089353;28;20534;-40
2021/05/09 01:48:47;;;;;;;4.35;2.72;;;13.50;97.30;;;;;;5100776;28;20533;-39
2021/05/09 01:51:13;;;;;;;3.42;2.80;;;13.50;97.30;;;;;;5088936;28;20030;-40
2021/05/09 01:53:38;;;;;;;3.88;2.80;;;13.50;97.30;;;;;;5100473;28;20032;-41
2021/05/09 01:56:07;;;;;;;3.40;2.67;;;13.50;97.30;;;;;;5088514;28;20080;-43
2021/05/09 01:58:32;;;;;;;4.53;3.53;;;13.50;97.30;;;;;;5098490;28;20031;-41
2021/05/09 02:00:58;;;;;;;5.85;3.00;;;13.40;97.40;;;;;;5091286;28;20043;-40
2021/05/09 02:03:23;;;;;;;4.80;2.90;;;13.40;97.40;;;;;;5095874;28;20027;-42
2021/05/09 02:05:49;;;;;;;4.18;2.60;;;13.30;97.40;;;;;;5093962;28;20530;-35
2021/05/09 02:08:17;;;;;;;3.75;2.95;;;13.20;97.50;;;;;;5091952;28;20034;-39
2021/05/09 02:10:43;;;;;;;5.22;2.78;;;13.20;97.60;;;;;;5095861;28;20119;-41
2021/05/09 02:13:08;;;;;;;3.20;2.83;;;13.10;97.60;;;;;;5090361;28;20115;-40
2021/05/09 02:15:34;;;;;;;4.78;2.80;;;13.10;97.70;;;;;;5099007;28;20078;-40
2021/05/09 02:18:00;;;;;;;3.35;3.03;;;13.10;97.70;;;;;;5089314;28;20023;-40
2021/05/09 02:20:25;;;;;;;4.57;3.13;;;13.00;97.70;;;;;;5099806;28;20028;-41
2021/05/09 02:22:51;;;;;;;2.90;2.55;;;13.00;97.70;;;;;;5088124;28;20024;-39
2021/05/09 02:25:16;;;;;;;4.30;2.95;;;13.00;97.80;;;;;;5100225;28;20127;-39
2021/05/09 02:27:42;;;;;;;3.10;2.80;;;12.90;97.80;;;;;;5087992;28;20336;-40
2021/05/09 02:30:08;;;;;;;4.22;2.90;;;12.90;97.80;;;;;;5100867;28;20377;-41
2021/05/09 02:32:34;;;;;;;3.80;3.40;;;12.80;97.90;;;;;;5087694;28;20639;-36
2021/05/09 02:35:00;;;;;;;5.05;3.45;;;12.80;98.00;;;;;;5094918;28;20078;-38
2021/05/09 02:37:26;;;;;;;3.90;2.95;;;12.80;98.00;;;;;;5086990;28;20471;-38
2021/05/09 02:39:51;;;;;;;7.93;3.63;;;12.80;98.00;;;;;;5096869;28;20586;-38
2021/05/09 02:42:18;;;;;;;6.22;3.30;;;12.70;98.00;;;;;;5090884;28;20101;-39
2021/05/09 02:44:43;;;;;;;3.92;3.42;;;12.70;98.10;;;;;;5093854;28;20024;-34
2021/05/09 02:47:27;;;;;;;4.35;3.38;;;12.70;98.10;;;;;;5093869;28;20028;-38
2021/05/09 02:49:54;;;;;;;4.63;3.22;;;12.60;98.10;;;;;;5093573;28;20027;-39
2021/05/09 02:52:20;;;;;;;3.95;3.20;;;12.60;98.10;;;;;;5092497;28;20041;-39
2021/05/09 02:54:48;;;;;;;3.90;3.13;;;12.50;98.10;;;;;;5091410;28;20598;-40
2021/05/09 02:57:14;;;;;;;4.53;3.38;;;12.50;98.20;;;;;;5094943;28;20039;-39
2021/05/09 02:59:39;;;;;;;5.57;3.53;;;12.50;98.30;;;;;;5089512;28;20028;-41
2021/05/09 03:02:05;;;;;;;6.15;3.60;;;12.40;98.30;;;;;;5098260;28;20035;-41
2021/05/09 03:04:30;;;;;;;6.82;3.63;;;12.50;98.40;;;;;;5088356;28;20031;-38
2021/05/09 03:06:56;;;;;;;4.22;3.45;;;12.40;98.30;;;;;;5098492;28;20115;-39
2021/05/09 03:09:21;;;;;;;5.63;3.53;;;12.50;98.40;;;;;;5087044;28;20016;-39
2021/05/09 03:11:47;;;;;;;5.07;3.97;;;12.40;98.40;;;;;;5099563;28;20388;-37
2021/05/09 03:14:12;;;;;;;7.20;3.92;;;12.40;98.40;;;;;;5087331;28;20051;-38
2021/05/09 03:16:38;;;;;;;6.85;3.42;;;12.40;98.40;;;;;;5099668;28;20031;-38
2021/05/09 03:19:03;;;;;;;7.13;4.07;;;12.40;98.50;;;;;;5086267;28;20507;-37
2021/05/09 03:21:29;;;;;;;5.43;3.75;;;12.40;98.50;;;;;;5097844;28;20023;-40
2021/05/09 03:23:54;;;;;;;6.93;3.83;;;12.40;98.50;;;;;;5088730;28;20046;-39
2021/05/09 03:26:20;;;;;;;5.65;3.53;;;12.30;98.50;;;;;;5094987;28;20027;-38
2021/05/09 03:28:45;;;;;;;5.60;3.10;;;12.30;98.60;;;;;;5090664;28;20040;-39
2021/05/09 03:31:14;;;;;;;4.32;3.50;;;12.30;98.60;;;;;;5092493;28;20020;-39
2021/05/09 03:33:39;;;;;;;5.13;3.65;;;12.30;98.70;;;;;;5093248;28;20052;-40
2021/05/09 03:36:05;;;;;;;5.45;3.42;;;12.30;98.70;;;;;;5095112;28;20097;-40
2021/05/09 03:38:31;;;;;;;8.40;3.72;;;12.30;98.80;;;;;;5098231;28;20114;-40
2021/05/09 03:40:56;;;;;;;4.50;3.00;;;12.30;98.70;;;;;;5105156;28;20020;-40
2021/05/09 03:43:25;;;;;;;5.30;3.70;;;12.30;98.80;;;;;;5095743;28;20479;-40
2021/05/09 03:45:53;;;;;;;5.70;3.40;;;12.30;98.70;;;;;;5105075;28;20028;-38
2021/05/09 03:48:19;;;;;;;5.25;3.30;;;12.30;98.80;;;;;;5095325;28;20035;-39
2021/05/09 03:50:44;;;;;;;4.95;3.13;;;12.30;98.80;;;;;;5105608;28;20062;-38
2021/05/09 03:53:10;;;;;;;3.67;3.30;;;12.30;99.10;;;;;;5095098;28;20023;-38
2021/05/09 03:55:35;;;;;;;4.78;2.72;;;12.30;98.80;;;;;;5107208;28;20036;-38
2021/05/09 03:58:01;;;;;;;3.47;2.67;;;12.20;98.80;;;;;;5092840;28;20024;-39
2021/05/09 04:00:27;;;;;;;6.60;3.33;;;12.20;98.80;;;;;;5106252;28;20016;-37
2021/05/09 04:02:52;;;;;;;3.85;3.15;;;12.20;98.90;;;;;;5094976;28;20070;-39
2021/05/09 04:05:18;;;;;;;4.40;3.35;;;12.10;98.90;;;;;;5104871;28;20027;-39
2021/05/09 04:07:43;;;;;;;7.18;3.25;;;12.10;98.90;;;;;;5097261;28;20024;-39
2021/05/09 04:10:09;;;;;;;4.00;3.53;;;12.20;98.90;;;;;;5102189;28;20023;-36
2021/05/09 04:12:35;;;;;;;4.45;3.53;;;12.20;98.90;;;;;;5100319;28;20031;-38
2021/05/09 04:15:00;;;;;;;3.97;3.05;;;12.20;98.90;;;;;;5098976;28;20024;-37
2021/05/09 04:17:26;;;;;;;5.03;3.75;;;12.10;98.90;;;;;;5102819;28;20407;-38
2021/05/09 04:19:51;;;;;;;4.00;3.30;;;12.20;98.90;;;;;;5096620;28;20019;-39
2021/05/09 04:22:17;;;;;;;6.05;3.70;;;12.20;98.90;;;;;;5104262;28;20020;-39
2021/05/09 04:24:42;;;;;;;6.10;3.40;;;12.20;98.90;;;;;;5094472;28;20020;-37
2021/05/09 04:27:08;;;;;;;6.95;3.90;;;12.10;98.90;;;;;;5104930;28;20046;-38
2021/05/09 04:29:33;;;;;;;6.15;4.13;;;12.20;99.00;;;;;;5094012;28;20023;-39
2021/05/09 04:31:59;;;;;;;8.63;4.85;;;12.20;99.00;;;;;;5105532;28;20744;-39
2021/05/09 04:34:24;;;;;;;5.60;4.35;;;12.30;99.10;;;;;;5092922;28;20058;-39
2021/05/09 04:36:50;;;;;;;7.22;4.32;;;12.30;99.10;;;;;;5087584;28;20024;-38
2021/05/09 04:39:15;;;;;;;6.50;4.03;;;12.40;99.10;;;;;;5097814;28;20046;-39
2021/05/09 04:41:41;;;;;;;5.80;4.70;;;12.40;99.00;;;;;;5085492;28;20016;-39
2021/05/09 04:44:09;;;;;;;6.93;4.65;;;12.50;99.00;;;;;;5089481;28;20062;-40
2021/05/09 04:46:35;;;;;;;5.93;4.55;;;12.50;99.00;;;;;;5103270;28;20335;-37
2021/05/09 04:49:00;;;;;;;5.40;4.80;;;12.50;99.00;;;;;;5097723;28;20077;-37
2021/05/09 04:51:26;;;;;;;6.10;4.40;;;12.60;99.00;;;;;;5100314;28;20031;-40
2021/05/09 04:53:52;;;;;;;8.45;4.28;;;12.60;99.00;;;;;;5100287;28;20032;-39
2021/05/09 04:56:18;;;;;;;4.38;3.90;;;12.60;99.00;;;;;;5097437;28;20557;-40
2021/05/09 04:58:44;;;;;;;6.05;4.28;;;12.70;99.00;;;;;;5102392;28;20026;-40
2021/05/09 05:01:12;;;;;;;4.70;3.92;;;12.80;99.00;;;;;;5095352;28;20653;-40
2021/05/09 05:03:37;;;;;;;5.65;4.38;;;12.80;98.90;;;;;;5103732;28;20020;-39
2021/05/09 05:06:04;;;;;;;4.68;3.97;;;12.90;98.90;;;;;;5094156;28;20034;-39
2021/05/09 05:08:31;;;;;;;4.90;4.25;;;12.90;98.90;;;;;;5104125;28;20076;-40
2021/05/09 05:11:02;;;;;;;5.43;4.00;;;13.00;98.80;;;;;;5100906;28;20023;-39
2021/05/09 05:13:31;;;;;;;3.83;3.42;;;13.10;98.80;;;;;;5106376;28;20078;-39
2021/05/09 05:15:58;;;;;;;5.50;4.15;;;13.10;98.70;;;;;;5097081;28;20707;-40
2021/05/09 05:18:24;;;;;;;6.10;4.07;;;13.20;98.70;;;;;;5084775;28;20036;-39
2021/05/09 05:20:50;;;;;;;5.57;4.50;;;13.30;98.70;;;;;;5098360;28;20046;-39
2021/05/09 05:23:16;;;;;;;6.40;4.28;;;13.30;98.60;;;;;;5085038;28;20031;-40
2021/05/09 05:25:42;;;;;;;5.85;4.07;;;13.40;98.60;;;;;;5096414;28;20021;-38
2021/05/09 05:28:08;;;;;;;6.22;3.97;;;13.50;98.60;;;;;;5085741;28;20046;-39
2021/05/09 05:30:34;;;;;;;4.57;4.13;;;13.50;98.60;;;;;;5094479;28;20035;-40
2021/05/09 05:33:04;;;;;;;5.85;4.25;;;13.50;98.50;;;;;;5087999;28;20024;-39
2021/05/09 05:35:29;;;;;;;5.22;3.97;;;13.60;98.50;;;;;;5092579;28;20410;-39
2021/05/09 05:37:56;;;;;;;6.28;3.90;;;13.70;98.50;;;;;;5090929;28;20016;-38
2021/05/09 05:40:23;;;;;;;4.88;3.70;;;13.70;98.40;;;;;;5088969;28;20075;-39
2021/05/09 05:42:49;;;;;;;6.38;4.45;;;13.80;98.30;;;;;;5093143;28;20024;-40
2021/05/09 05:45:15;;;;;;;4.47;3.90;;;13.90;98.30;;;;;;5087110;28;20526;-38
2021/05/09 05:47:41;;;;;;;4.60;3.80;;;13.90;98.20;;;;;;5094311;28;20436;-39
2021/05/09 05:50:08;;;;;;;4.55;3.92;;;13.90;98.10;;;;;;5086542;28;20057;-39
2021/05/09 05:52:34;;;;;;;4.82;3.60;;;14.00;98.10;;;;;;5096124;28;20032;-39
2021/05/09 05:55:02;;;;;;;4.32;3.40;;;14.00;98.10;;;;;;5085060;28;20032;-39
2021/05/09 05:57:28;;;;;;;5.63;3.47;;;14.00;98.10;;;;;;5096975;28;20043;-41
2021/05/09 05:59:53;;;;;;;5.95;3.85;;;14.10;98.10;;;;;;5084029;28;20028;-36
2021/05/09 06:02:21;;;;;;;5.25;3.90;;;14.10;98.10;;;;;;5097691;28;20035;-41
2021/05/09 06:04:47;;;;;;;6.05;3.60;;;14.20;98.00;;;;;;5085175;28;20173;-38
2021/05/09 06:07:12;;;;;;;4.65;3.67;;;14.20;98.00;;;;;;5097474;28;20110;-39
2021/05/09 06:09:38;;;;;;;5.60;3.88;;;14.30;98.00;;;;;;5085292;28;20043;-40
2021/05/09 06:12:05;;;;;;;4.95;3.65;;;14.30;97.90;;;;;;5089148;28;20169;-39
2021/05/09 06:14:31;;;;;;;5.07;3.70;;;14.40;97.90;;;;;;5106396;28;20069;-39
2021/05/09 06:16:56;;;;;;;4.47;4.05;;;14.50;97.90;;;;;;5100545;28;20036;-40
2021/05/09 06:19:22;;;;;;;4.72;3.40;;;14.50;97.80;;;;;;5103757;28;20112;-41
2021/05/09 06:21:48;;;;;;;4.57;3.33;;;14.60;97.70;;;;;;5103417;28;20119;-40
2021/05/09 06:24:13;;;;;;;3.70;3.33;;;14.70;97.70;;;;;;5100385;28;20019;-40
2021/05/09 06:26:39;;;;;;;4.15;3.75;;;14.70;97.60;;;;;;5106267;28;20020;-39
2021/05/09 06:29:05;;;;;;;5.38;3.55;;;14.80;97.60;;;;;;5096476;28;20035;-40
2021/05/09 06:31:30;;;;;;;3.03;2.72;;;14.90;97.50;;;;;;5107616;28;20123;-39
2021/05/09 06:33:56;;;;;;;4.60;2.70;;;15.00;97.40;;;;;;5096967;28;20027;-39
2021/05/09 06:36:22;;;;;;;3.95;3.28;;;15.10;97.40;;;;;;5095617;28;20787;-39
2021/05/09 06:38:48;;;;;;;2.95;2.67;;;15.20;97.20;;;;;;5099851;28;20028;-39
2021/05/09 06:41:14;;;;;;;4.32;2.88;;;15.30;97.10;;;;;;5086597;28;20478;-38
2021/05/09 06:43:39;;;;;;;2.83;2.50;;;15.50;97.00;;;;;;5097930;28;20099;-39
2021/05/09 06:46:05;;;;;;;3.50;2.78;;;15.60;96.90;;;;;;5086129;28;20116;-39
2021/05/09 06:48:30;;;;;;;3.42;3.08;;;15.70;96.70;;;;;;5098485;28;20376;-39
2021/05/09 06:50:59;;;;;;;2.72;2.40;;;15.90;96.60;;;;;;5087702;28;20038;-39
2021/05/09 06:53:25;;;;;;;3.70;2.80;;;16.00;96.40;;;;;;5096337;28;20127;-41
2021/05/09 06:55:51;;;;;;;3.20;2.30;;;16.10;96.30;;;;;;5089536;28;20052;-40
2021/05/09 06:58:21;;;;;;;3.70;2.33;;;16.20;96.20;;;;;;5093029;28;20468;-40
2021/05/09 07:00:46;;;;;;;2.58;2.15;;;16.30;96.00;;;;;;5092104;28;20059;-40
2021/05/09 07:03:12;;;;;;;3.03;2.30;;;16.30;95.90;;;;;;5090731;28;20576;-40
2021/05/09 07:05:37;;;;;;;2.85;2.17;;;16.40;95.90;;;;;;5094850;28;20078;-39
2021/05/09 07:08:03;;;;;;;2.72;2.20;;;16.40;95.90;;;;;;5088537;28;20047;-38
2021/05/09 07:10:33;;;;;;;1.80;1.65;;;16.50;95.80;;;;;;5096416;28;20412;-39
2021/05/09 07:12:58;;;;;;;2.20;1.77;;;16.50;95.70;;;;;;5086625;28;20031;-40
2021/05/09 07:15:27;;;;;;;2.00;1.80;;;16.60;95.60;;;;;;5098571;28;20810;-40
2021/05/09 07:18:01;;;;;;;2.58;1.60;;;16.70;95.50;;;;;;5087326;28;20135;-38
2021/05/09 07:20:27;;;;;;;2.25;1.65;;;16.70;95.40;;;;;;5097922;28;20027;-40
2021/05/09 07:22:54;;;;;;;2.15;1.80;;;16.80;95.30;;;;;;5086437;28;20035;-38
2021/05/09 07:25:20;;;;;;;2.63;1.90;;;16.90;95.20;;;;;;5097694;28;20108;-40
2021/05/09 07:27:46;;;;;;;2.40;1.77;;;17.00;95.00;;;;;;5086064;28;20036;-40
2021/05/09 07:30:12;;;;;;;2.50;2.00;;;17.10;94.90;;;;;;5098961;28;20642;-40
2021/05/09 07:32:38;;;;;;;2.10;1.90;;;17.20;94.50;;;;;;5086213;28;20028;-39
2021/05/09 07:35:04;;;;;;;3.35;2.28;;;17.40;94.50;;;;;;5096889;28;20046;-39
2021/05/09 07:37:29;;;;;;;2.33;1.67;;;17.50;94.30;;;;;;5101878;28;20019;-40
2021/05/09 07:39:55;;;;;;;2.17;1.60;;;17.50;94.10;;;;;;5097392;28;20070;-41
2021/05/09 07:42:20;;;;;;;2.15;1.70;;;17.60;94.10;;;;;;5104142;28;20030;-39
2021/05/09 07:44:46;;;;;;;2.45;1.60;;;17.60;94.00;;;;;;5099929;28;20049;-41
2021/05/09 07:47:12;;;;;;;2.13;1.88;;;17.60;94.10;;;;;;5100690;28;20036;-38
2021/05/09 07:49:37;;;;;;;2.15;1.70;;;17.60;94.10;;;;;;5102988;28;20012;-40
2021/05/09 07:52:03;;;;;;;1.95;1.73;;;17.70;94.10;;;;;;5097563;28;20486;-40
2021/05/09 07:54:29;;;;;;;3.10;2.00;;;17.70;94.00;;;;;;5105854;28;20386;-40
2021/05/09 07:56:54;;;;;;;2.72;2.00;;;17.80;94.00;;;;;;5106137;28;20553;-39
2021/05/09 07:59:20;;;;;;;2.47;1.80;;;17.90;93.90;;;;;;5104249;28;20044;-42
2021/05/09 08:01:45;;;;;;;2.13;1.65;;;18.10;93.70;;;;;;5105129;28;20043;-41
2021/05/09 08:04:11;;;;;;;3.00;1.77;;;18.20;93.50;;;;;;5105988;28;20019;-38
2021/05/09 08:06:39;;;;;;;2.63;1.60;;;18.30;93.40;;;;;;5104866;28;20016;-39
2021/05/09 08:09:05;;;;;;;2.00;1.80;;;18.40;93.20;;;;;;5106359;28;20024;-40
2021/05/09 08:11:31;;;;;;;3.25;1.95;;;18.40;93.10;;;;;;5093663;28;20532;-40
2021/05/09 08:13:56;;;;;;;2.72;2.30;;;18.40;93.00;;;;;;5105993;28;20036;-41
2021/05/09 08:16:22;;;;;;;3.15;2.35;;;18.40;92.90;;;;;;5095439;28;20028;-41
2021/05/09 08:18:47;;;;;;;2.60;2.10;;;18.40;92.90;;;;;;5104886;28;20084;-40
2021/05/09 08:21:13;;;;;;;2.67;2.35;;;18.40;93.00;;;;;;5101699;28;20045;-40
2021/05/09 08:23:43;;;;;;;4.35;3.13;;;18.40;93.10;;;;;;5090451;28;20073;-39
2021/05/09 08:26:09;;;;;;;5.55;3.20;;;18.40;93.50;;;;;;5092590;28;20105;-40
2021/05/09 08:28:34;;;;;;;3.63;3.10;;;18.40;93.90;;;;;;5090634;28;20064;-40
2021/05/09 08:31:00;;;;;;;3.83;2.80;;;18.40;94.20;;;;;;5089096;28;20661;-40
2021/05/09 08:33:25;;;;;;;3.28;2.95;;;18.50;94.40;;;;;;5106834;28;20462;-39
2021/05/09 08:35:51;;;;;;;3.38;2.83;;;18.60;94.30;;;;;;5100962;28;20081;-42
2021/05/09 08:38:16;;;;;;;3.58;2.05;;;18.70;94.20;;;;;;5106396;28;20023;-39
2021/05/09 08:40:42;;;;;;;2.90;2.10;;;18.90;94.00;;;;;;5105410;28;20015;-38
2021/05/09 08:43:08;;;;;;;4.35;2.53;;;19.10;93.80;;;;;;5097497;28;20069;-40
2021/05/09 08:45:33;;;;;;;3.60;2.22;;;19.30;93.50;;;;;;5086947;28;20111;-38
2021/05/09 08:48:00;;;;;;;2.88;2.30;;;19.40;93.30;;;;;;5098812;28;20023;-39
2021/05/09 08:50:32;;;;;;;3.75;2.45;;;19.50;93.00;;;;;;5106157;28;20023;-40
2021/05/09 08:52:58;;;;;;;2.47;2.20;;;19.60;92.90;;;;;;5093329;28;20022;-38
2021/05/09 08:55:31;;;;;;;3.40;2.75;;;19.60;92.80;;;;;;5106701;28;20074;-39
2021/05/09 08:57:57;;;;;;;3.15;2.40;;;19.60;92.80;;;;;;5093038;28;20499;-40
2021/05/09 09:00:25;;;;;;;2.90;2.20;;;19.60;92.80;;;;;;5106838;28;20027;-42
2021/05/09 09:02:50;;;;;;;2.70;2.03;;;19.60;92.70;;;;;;5094940;28;20055;-40
2021/05/09 09:05:16;;;;;;;2.80;2.00;;;19.60;92.70;;;;;;5104822;28;20082;-38
2021/05/09 09:07:52;;;;;;;2.90;2.00;;;19.50;92.70;;;;;;5102122;28;20020;-40
2021/05/09 09:10:51;;;;;;;2.70;1.77;;;19.50;92.80;;;;;;5106287;28;20118;-42
2021/05/09 09:13:28;;;;;;;2.90;2.20;;;19.50;93.00;;;;;;5099606;28;20040;-40
2021/05/09 09:15:55;;;;;;;1.80;1.70;;;19.60;92.80;;;;;;5106199;28;20479;-41
2021/05/09 09:18:34;;;;;;;1.90;1.73;;;19.70;92.50;;;;;;5102056;28;20438;-40
2021/05/09 09:21:27;;;;;;;1.70;1.60;;;19.90;92.40;;;;;;5098180;28;20080;-41
2021/05/09 09:24:06;;;;;;;4.13;1.98;;;20.10;92.30;;;;;;5093086;28;20793;-41
2021/05/09 09:26:49;;;;;;;1.80;1.42;;;20.20;92.10;;;;;;5106210;28;20115;-40
2021/05/09 09:29:20;;;;;;;1.75;1.65;;;20.30;92.00;;;;;;5093674;28;20048;-38
2021/05/09 09:31:50;;;;;;;2.88;1.85;;;20.50;91.90;;;;;;5106140;28;20032;-39
2021/05/09 09:34:16;;;;;;;4.05;2.22;;;20.50;91.70;;;;;;5104137;28;20035;-40
2021/05/09 09:36:42;;;;;;;3.67;1.90;;;20.50;91.40;;;;;;5104385;28;20020;-41
2021/05/09 09:39:09;;;;;;;3.38;2.22;;;20.60;91.40;;;;;;5094745;28;20032;-38
2021/05/09 09:41:46;;;;;;;3.88;2.10;;;20.60;91.50;;;;;;5105243;28;20512;-39
2021/05/09 09:44:15;;;;;;;2.75;2.00;;;20.60;91.40;;;;;;5095719;28;20105;-39
2021/05/09 09:46:45;;;;;;;2.22;1.80;;;20.70;91.30;;;;;;5105873;28;20019;-40
2021/05/09 09:49:27;;;;;;;2.55;1.90;;;20.70;91.30;;;;;;5101522;28;20367;-41
2021/05/09 09:52:00;;;;;;;2.95;1.90;;;20.60;91.20;;;;;;5107982;28;20463;-40
2021/05/09 09:54:44;;;;;;;2.13;1.70;;;20.60;91.40;;;;;;5100633;28;20043;-38
2021/05/09 09:57:24;;;;;;;2.05;1.80;;;20.60;91.50;;;;;;5109735;28;20059;-40
2021/05/09 10:00:10;;;;;;;2.25;2.00;;;20.60;91.60;;;;;;5097564;28;20036;-38
2021/05/09 10:02:37;;;;;;;2.40;1.80;;;20.50;91.50;;;;;;5090073;28;20020;-40
2021/05/09 10:05:03;;;;;;;2.03;1.92;;;20.50;91.50;;;;;;5093546;28;20024;-38
2021/05/09 10:07:29;;;;;;;1.70;1.60;;;20.60;91.50;;;;;;5109053;28;20084;-39
2021/05/09 10:09:57;;;;;;;2.88;1.85;;;20.60;91.60;;;;;;5100260;28;20414;-40
2021/05/09 10:12:26;;;;;;;2.10;1.90;;;20.70;91.60;;;;;;5106755;28;20081;-40
2021/05/09 10:14:52;;;;;;;3.03;2.03;;;20.70;91.60;;;;;;5101995;28;20028;-39
2021/05/09 10:17:22;;;;;;;1.83;1.70;;;20.70;91.50;;;;;;5104378;28;20028;-41
2021/05/09 10:19:48;;;;;;;2.97;1.67;;;20.80;91.50;;;;;;5103995;28;20408;-37
2021/05/09 10:22:34;;;;;;;3.42;1.77;;;20.90;91.50;;;;;;5090947;28;20045;-41
2021/05/09 10:25:01;;;;;;;1.95;1.75;;;21.00;91.70;;;;;;5103794;28;20028;-40
2021/05/09 10:27:40;;;;;;;1.88;1.50;;;21.10;91.60;;;;;;5102260;28;20027;-41
2021/05/09 10:30:13;;;;;;;2.67;1.80;;;21.20;91.60;;;;;;5104229;28;20016;-42
2021/05/09 10:32:38;;;;;;;2.40;2.20;;;21.20;91.40;;;;;;5103191;28;20352;-41
2021/05/09 10:35:06;;;;;;;3.60;2.42;;;21.30;91.20;;;;;;5105002;28;20043;-39
2021/05/09 10:40:37;;;;;;;2.13;1.60;;;21.60;91.00;;;;;;5104382;28;20024;-37
2021/05/09 10:43:02;;;;;;;3.35;1.75;;;21.70;91.00;;;;;;5094490;28;20479;-39
2021/05/09 10:45:30;;;;;;;2.15;1.95;;;21.80;90.90;;;;;;5092412;28;20028;-40
2021/05/09 10:48:19;;;;;;;3.00;1.85;;;21.80;90.80;;;;;;5097777;28;20020;-39
2021/05/09 10:51:14;;;;;;;2.25;1.70;;;21.90;90.70;;;;;;5090444;28;20023;-37
2021/05/09 10:53:41;;;;;;;4.50;1.80;;;22.10;90.30;;;;;;5092181;28;20070;-39
2021/05/09 10:56:16;;;;;;;2.03;1.50;;;22.30;90.30;;;;;;5094228;28;20044;-39
2021/05/09 10:58:50;;;;;;;2.55;1.65;;;22.40;90.10;;;;;;5092715;28;20463;-41
2021/05/09 11:01:24;;;;;;;4.13;2.05;;;22.50;89.30;;;;;;5094946;28;20031;-40
2021/05/09 11:03:55;;;;;;;2.17;1.88;;;22.50;88.00;;;;;;5093001;28;20027;-40
2021/05/09 11:06:44;;;;;;;2.40;1.65;;;22.50;88.40;;;;;;5092717;28;20028;-41
2021/05/09 11:09:13;;;;;;;3.72;1.85;;;22.40;88.50;;;;;;5092163;28;20028;-38
2021/05/09 11:11:39;;;;;;;2.88;1.42;;;22.30;88.80;;;;;;5094374;28;20027;-39
2021/05/09 11:14:05;;;;;;;2.22;1.73;;;22.20;89.20;;;;;;5094134;28;20569;-39
2021/05/09 11:16:38;;;;;;;3.22;1.80;;;22.20;89.50;;;;;;5091167;28;20127;-39
2021/05/09 11:19:14;;;;;;;1.73;1.52;;;22.10;89.80;;;;;;5095294;28;20487;-40
2021/05/09 11:21:52;;;;;;;3.38;1.70;;;22.10;90.10;;;;;;5091062;28;20078;-39
2021/05/09 11:24:27;;;;;;;2.10;1.80;;;22.20;90.10;;;;;;5095126;28;20046;-38
2021/05/09 11:26:58;;;;;;;2.90;1.88;;;22.30;89.90;;;;;;5091143;28;20110;-39
2021/05/09 11:29:26;;;;;;;3.63;1.70;;;22.40;89.50;;;;;;5095818;28;20024;-38
2021/05/09 11:31:56;;;;;;;7.00;1.70;;;22.50;89.60;;;;;;5089971;28;20074;-39
2021/05/09 11:34:24;;;;;;;3.88;1.75;;;22.60;89.50;;;;;;5097529;28;20039;-40
2021/05/09 11:36:51;;;;;;;1.30;1.20;;;22.70;89.20;;;;;;5098516;28;20024;-40
2021/05/09 11:39:34;;;;;;;2.70;1.73;;;22.90;88.90;;;;;;5107728;28;20027;-38
2021/05/09 11:42:15;;;;;;;2.33;1.70;;;22.90;88.70;;;;;;5107210;28;20427;-37
2021/05/09 11:44:50;;;;;;;2.75;2.05;;;23.00;88.70;;;;;;5097344;28;20038;-40
2021/05/09 11:47:21;;;;;;;4.38;1.90;;;22.90;88.40;;;;;;5105375;28;20129;-38
2021/05/09 11:49:47;;;;;;;2.28;1.55;;;23.00;88.50;;;;;;5097363;28;20076;-39
2021/05/09 11:52:21;;;;;;;2.88;1.70;;;23.00;88.70;;;;;;5105939;28;20015;-37
2021/05/09 11:54:55;;;;;;;1.83;1.40;;;23.10;88.20;;;;;;5096090;28;20031;-40
2021/05/09 11:57:23;;;;;;;2.42;1.73;;;23.00;88.10;;;;;;5105994;28;20407;-38
2021/05/09 11:59:54;;;;;;;6.50;3.67;;;23.00;88.00;;;;;;5095797;28;20011;-39
2021/05/09 12:02:31;;;;;;;3.97;2.90;;;22.90;88.10;;;;;;5106221;28;20023;-39
2021/05/09 12:05:01;;;;;;;3.75;2.50;;;22.80;88.10;;;;;;5096014;28;20051;-39
2021/05/09 12:07:32;;;;;;;2.17;1.83;;;22.60;88.60;;;;;;5105879;28;20016;-38
2021/05/09 12:10:00;;;;;;;2.45;1.83;;;22.50;88.90;;;;;;5102812;28;20038;-40
2021/05/09 12:12:31;;;;;;;2.72;1.70;;;22.40;89.20;;;;;;5107057;28;20050;-41
2021/05/09 12:15:07;;;;;;;3.10;2.17;;;22.30;89.40;;;;;;5094264;28;20030;-41
2021/05/09 12:17:34;;;;;;;3.08;2.10;;;22.20;89.60;;;;;;5106952;28;20022;-41
2021/05/09 12:19:59;;;;;;;2.63;2.35;;;22.10;89.90;;;;;;5091937;28;20674;-40
2021/05/09 12:22:25;;;;;;;3.65;2.30;;;22.10;90.10;;;;;;5108164;28;20102;-40
2021/05/09 12:24:57;;;;;;;2.65;1.80;;;22.10;90.10;;;;;;5094002;28;20054;-38
2021/05/09 12:27:24;;;;;;;3.63;1.83;;;22.10;90.10;;;;;;5107015;28;20038;-39
2021/05/09 12:29:52;;;;;;;2.55;1.85;;;22.10;90.10;;;;;;5095786;28;20032;-39
2021/05/09 12:32:33;;;;;;;1.90;1.80;;;22.10;90.10;;;;;;5106155;28;20028;-40
2021/05/09 12:35:00;;;;;;;2.67;1.90;;;22.10;90.10;;;;;;5095475;28;20043;-39
2021/05/09 12:37:30;;;;;;;2.20;1.92;;;22.20;90.00;;;;;;5088692;28;20103;-40
2021/05/09 12:40:17;;;;;;;2.83;2.10;;;22.20;90.00;;;;;;5095674;28;20019;-40
2021/05/09 12:42:59;;;;;;;2.88;2.22;;;22.20;89.70;;;;;;5086309;28;20158;-40
2021/05/09 12:45:28;;;;;;;3.75;2.13;;;22.30;89.60;;;;;;5099006;28;20104;-40
2021/05/09 12:48:04;;;;;;;2.95;2.10;;;22.30;89.20;;;;;;5086154;28;20027;-40
2021/05/09 12:50:59;;;;;;;1.85;1.60;;;22.40;89.00;;;;;;5098148;28;20035;-40
2021/05/09 12:53:42;;;;;;;2.42;1.75;;;22.40;88.70;;;;;;5086576;28;20455;-40
2021/05/09 12:56:32;;;;;;;4.13;2.08;;;22.40;88.30;;;;;;5092304;28;20082;-40